OMA185 OOMS-OYSN
Flight info
| Callsign | OMA185 |
|---|---|
| Flight time | N/A |
| Altitude | 40000 |
| Route | ITLAK DCT ITURA B400 VUTAP B424 MEGPA DCT MUTAB |
| Aircraft | A333/H-SDE3GHIJ2J3J5M1RVWXY/LB2D1 |
Departure
| Time | 2026-05-09 03:07 |
|---|---|
| Airport | Muscat International Airport (OOMS) |
Arrival
| Time | N/A |
|---|---|
| Airport | Sanaa International Airport (OYSN) |
| Time | Latitude | Longitude | Altitude | Speed | Heading |
|---|---|---|---|---|---|
| 2026-05-09 02:44 | 23.59961 | 58.28428 | 42 ft | 0 kts | 355° |
| 2026-05-09 02:56 | 23.59938 | 58.28430 | 42 ft | 4 kts | 353° |
| 2026-05-09 02:56 | 23.59912 | 58.28437 | 41 ft | 4 kts | 336° |
| 2026-05-09 02:56 | 23.59890 | 58.28452 | 41 ft | 4 kts | 307° |
| 2026-05-09 02:56 | 23.59881 | 58.28476 | 42 ft | 3 kts | 263° |
| 2026-05-09 02:57 | 23.59882 | 58.28483 | 42 ft | 0 kts | 262° |
| 2026-05-09 02:59 | 23.59880 | 58.28470 | 42 ft | 5 kts | 262° |
| 2026-05-09 02:59 | 23.59873 | 58.28404 | 42 ft | 12 kts | 264° |
| 2026-05-09 02:59 | 23.59864 | 58.28291 | 42 ft | 18 kts | 265° |
| 2026-05-09 03:00 | 23.59855 | 58.28162 | 43 ft | 22 kts | 265° |
| 2026-05-09 03:00 | 23.59856 | 58.27994 | 43 ft | 21 kts | 245° |
| 2026-05-09 03:00 | 23.59750 | 58.27863 | 43 ft | 24 kts | 217° |
| 2026-05-09 03:00 | 23.59607 | 58.27737 | 41 ft | 29 kts | 220° |
| 2026-05-09 03:01 | 23.59532 | 58.27540 | 44 ft | 30 kts | 264° |
| 2026-05-09 03:01 | 23.59593 | 58.27372 | 44 ft | 22 kts | 346° |
| 2026-05-09 03:01 | 23.59749 | 58.27355 | 44 ft | 23 kts | 355° |
| 2026-05-09 03:01 | 23.59913 | 58.27341 | 44 ft | 25 kts | 355° |
| 2026-05-09 03:02 | 23.60085 | 58.27325 | 44 ft | 24 kts | 356° |
| 2026-05-09 03:02 | 23.60253 | 58.27308 | 43 ft | 25 kts | 355° |
| 2026-05-09 03:02 | 23.60420 | 58.27320 | 43 ft | 24 kts | 39° |
| 2026-05-09 03:02 | 23.60468 | 58.27488 | 43 ft | 24 kts | 84° |
| 2026-05-09 03:03 | 23.60483 | 58.27676 | 42 ft | 26 kts | 86° |
| 2026-05-09 03:03 | 23.60500 | 58.27873 | 42 ft | 27 kts | 84° |
| 2026-05-09 03:03 | 23.60515 | 58.28079 | 42 ft | 28 kts | 85° |
| 2026-05-09 03:03 | 23.60531 | 58.28289 | 42 ft | 29 kts | 84° |
| 2026-05-09 03:04 | 23.60549 | 58.28509 | 42 ft | 29 kts | 84° |
| 2026-05-09 03:04 | 23.60567 | 58.28734 | 41 ft | 30 kts | 85° |
| 2026-05-09 03:04 | 23.60587 | 58.28966 | 41 ft | 31 kts | 84° |
| 2026-05-09 03:04 | 23.60602 | 58.29159 | 40 ft | 20 kts | 84° |
| 2026-05-09 03:05 | 23.60614 | 58.29318 | 40 ft | 22 kts | 85° |
| 2026-05-09 03:05 | 23.60627 | 58.29489 | 40 ft | 20 kts | 85° |
| 2026-05-09 03:05 | 23.60683 | 58.29602 | 39 ft | 16 kts | 19° |
| 2026-05-09 03:05 | 23.60795 | 58.29599 | 38 ft | 17 kts | 353° |
| 2026-05-09 03:06 | 23.60881 | 58.29521 | 39 ft | 17 kts | 281° |
| 2026-05-09 03:06 | 23.60878 | 58.29384 | 40 ft | 25 kts | 266° |
| 2026-05-09 03:06 | 23.60845 | 58.28950 | 42 ft | 93 kts | 265° |
| 2026-05-09 03:06 | 23.60769 | 58.27991 | 40 ft | 159 kts | 265° |
| 2026-05-09 03:07 | 23.60638 | 58.26680 | 580 ft | 181 kts | 264° |
| 2026-05-09 03:07 | 23.60520 | 58.25247 | 1485 ft | 194 kts | 265° |
| 2026-05-09 03:07 | 23.60400 | 58.23719 | 2293 ft | 211 kts | 264° |
| 2026-05-09 03:07 | 23.60267 | 58.22033 | 2658 ft | 235 kts | 265° |
| 2026-05-09 03:08 | 23.60122 | 58.20194 | 3056 ft | 249 kts | 267° |
| 2026-05-09 03:08 | 23.59974 | 58.18311 | 3598 ft | 254 kts | 266° |
| 2026-05-09 03:08 | 23.59816 | 58.16343 | 4173 ft | 260 kts | 266° |
| 2026-05-09 03:08 | 23.59655 | 58.14360 | 4688 ft | 265 kts | 266° |
| 2026-05-09 03:09 | 23.59488 | 58.12355 | 5252 ft | 271 kts | 266° |
| 2026-05-09 03:09 | 23.59312 | 58.10291 | 5838 ft | 275 kts | 264° |
| 2026-05-09 03:09 | 23.58796 | 58.08258 | 6404 ft | 284 kts | 244° |
| 2026-05-09 03:09 | 23.57493 | 58.06636 | 7018 ft | 291 kts | 215° |
| 2026-05-09 03:10 | 23.55584 | 58.05914 | 7624 ft | 297 kts | 184° |
| 2026-05-09 03:10 | 23.53520 | 58.06184 | 8226 ft | 301 kts | 167° |
| 2026-05-09 03:10 | 23.51503 | 58.06853 | 8825 ft | 305 kts | 160° |
| 2026-05-09 03:10 | 23.49554 | 58.07710 | 9416 ft | 307 kts | 156° |
| 2026-05-09 03:11 | 23.47599 | 58.08647 | 10093 ft | 306 kts | 155° |
| 2026-05-09 03:11 | 23.45627 | 58.09598 | 10529 ft | 316 kts | 155° |
| 2026-05-09 03:11 | 23.43525 | 58.10578 | 10741 ft | 333 kts | 158° |
| 2026-05-09 03:11 | 23.41260 | 58.11204 | 10948 ft | 349 kts | 173° |
| 2026-05-09 03:12 | 23.38814 | 58.11026 | 11403 ft | 357 kts | 193° |
| 2026-05-09 03:12 | 23.36502 | 58.10031 | 12021 ft | 359 kts | 204° |
| 2026-05-09 03:12 | 23.34315 | 58.08711 | 12710 ft | 360 kts | 209° |
| 2026-05-09 03:12 | 23.32207 | 58.07231 | 13370 ft | 361 kts | 211° |
| 2026-05-09 03:13 | 23.28027 | 58.04094 | 14460 ft | 368 kts | 212° |
| 2026-05-09 03:13 | 23.25903 | 58.02509 | 15021 ft | 371 kts | 211° |
| 2026-05-09 03:13 | 23.23760 | 58.00936 | 15562 ft | 373 kts | 211° |
| 2026-05-09 03:14 | 23.21585 | 57.99365 | 16093 ft | 376 kts | 211° |
| 2026-05-09 03:14 | 23.19389 | 57.97795 | 16630 ft | 378 kts | 210° |
| 2026-05-09 03:14 | 23.17181 | 57.96228 | 17147 ft | 380 kts | 211° |
| 2026-05-09 03:14 | 23.14983 | 57.94674 | 17611 ft | 383 kts | 210° |
| 2026-05-09 03:15 | 23.12741 | 57.93092 | 18103 ft | 386 kts | 210° |
| 2026-05-09 03:15 | 23.10487 | 57.91498 | 18548 ft | 388 kts | 211° |
| 2026-05-09 03:15 | 23.08214 | 57.89890 | 18991 ft | 391 kts | 211° |
| 2026-05-09 03:15 | 23.05928 | 57.88272 | 19400 ft | 394 kts | 211° |
| 2026-05-09 03:16 | 23.03629 | 57.86644 | 19820 ft | 396 kts | 211° |
| 2026-05-09 03:16 | 23.01307 | 57.85001 | 20227 ft | 398 kts | 211° |
| 2026-05-09 03:16 | 22.98974 | 57.83355 | 20607 ft | 401 kts | 211° |
| 2026-05-09 03:16 | 22.96625 | 57.81699 | 20975 ft | 404 kts | 211° |
| 2026-05-09 03:17 | 22.94266 | 57.80039 | 21373 ft | 405 kts | 211° |
| 2026-05-09 03:17 | 22.91891 | 57.78369 | 21732 ft | 408 kts | 211° |
| 2026-05-09 03:17 | 22.89470 | 57.76730 | 22095 ft | 409 kts | 207° |
| 2026-05-09 03:17 | 22.86984 | 57.75300 | 22427 ft | 411 kts | 206° |
| 2026-05-09 03:18 | 22.84421 | 57.73904 | 22742 ft | 413 kts | 205° |
| 2026-05-09 03:18 | 22.81826 | 57.72539 | 23077 ft | 415 kts | 204° |
| 2026-05-09 03:18 | 22.79208 | 57.71187 | 23396 ft | 418 kts | 204° |
| 2026-05-09 03:18 | 22.76576 | 57.69834 | 23717 ft | 419 kts | 204° |
| 2026-05-09 03:19 | 22.73928 | 57.68474 | 24036 ft | 421 kts | 204° |
| 2026-05-09 03:19 | 22.71275 | 57.67109 | 24347 ft | 423 kts | 204° |
| 2026-05-09 03:19 | 22.68608 | 57.65736 | 24660 ft | 425 kts | 205° |
| 2026-05-09 03:19 | 22.65940 | 57.64359 | 24963 ft | 426 kts | 205° |
| 2026-05-09 03:20 | 22.63258 | 57.62974 | 25253 ft | 428 kts | 205° |
| 2026-05-09 03:20 | 22.60566 | 57.61583 | 25559 ft | 429 kts | 205° |
| 2026-05-09 03:20 | 22.57869 | 57.60189 | 25874 ft | 430 kts | 205° |
| 2026-05-09 03:20 | 22.55181 | 57.58800 | 26155 ft | 432 kts | 205° |
| 2026-05-09 03:21 | 22.52456 | 57.57392 | 26424 ft | 434 kts | 205° |
| 2026-05-09 03:21 | 22.49725 | 57.55983 | 26728 ft | 435 kts | 205° |
| 2026-05-09 03:21 | 22.46982 | 57.54570 | 27012 ft | 437 kts | 205° |
| 2026-05-09 03:21 | 22.44238 | 57.53155 | 27316 ft | 438 kts | 205° |
| 2026-05-09 03:22 | 22.41482 | 57.51735 | 27595 ft | 439 kts | 205° |
| 2026-05-09 03:22 | 22.38718 | 57.50312 | 27881 ft | 441 kts | 205° |
| 2026-05-09 03:22 | 22.35977 | 57.48901 | 28141 ft | 442 kts | 205° |
| 2026-05-09 03:22 | 22.33188 | 57.47466 | 28443 ft | 444 kts | 205° |
| 2026-05-09 03:23 | 22.30395 | 57.46031 | 28698 ft | 445 kts | 206° |
| 2026-05-09 03:23 | 22.27590 | 57.44588 | 28978 ft | 447 kts | 206° |
| 2026-05-09 03:23 | 22.24780 | 57.43142 | 29240 ft | 448 kts | 206° |
| 2026-05-09 03:23 | 22.21962 | 57.41694 | 29495 ft | 449 kts | 206° |
| 2026-05-09 03:24 | 22.19124 | 57.40236 | 29758 ft | 451 kts | 206° |
| 2026-05-09 03:24 | 22.16314 | 57.38793 | 30018 ft | 452 kts | 206° |
| 2026-05-09 03:24 | 22.13474 | 57.37336 | 30241 ft | 453 kts | 206° |
| 2026-05-09 03:24 | 22.10618 | 57.35871 | 30465 ft | 455 kts | 206° |
| 2026-05-09 03:25 | 22.07752 | 57.34400 | 30687 ft | 457 kts | 206° |
| 2026-05-09 03:25 | 22.04877 | 57.32926 | 30908 ft | 458 kts | 206° |
| 2026-05-09 03:25 | 22.01989 | 57.31445 | 31093 ft | 461 kts | 206° |
| 2026-05-09 03:25 | 21.99090 | 57.29959 | 31312 ft | 463 kts | 206° |
| 2026-05-09 03:26 | 21.96171 | 57.28464 | 31496 ft | 466 kts | 206° |
| 2026-05-09 03:26 | 21.93235 | 57.26962 | 31724 ft | 468 kts | 206° |
| 2026-05-09 03:26 | 21.90290 | 57.25456 | 32020 ft | 468 kts | 206° |
| 2026-05-09 03:26 | 21.88376 | 57.24404 | 32270 ft | 467 kts | 210° |
| 2026-05-09 03:27 | 21.85643 | 57.22521 | 32661 ft | 465 kts | 217° |
| 2026-05-09 03:27 | 21.83201 | 57.20257 | 33044 ft | 463 kts | 226° |
| 2026-05-09 03:27 | 21.81076 | 57.17650 | 33450 ft | 462 kts | 231° |
| 2026-05-09 03:27 | 21.79091 | 57.14933 | 33861 ft | 461 kts | 233° |
| 2026-05-09 03:28 | 21.77176 | 57.12176 | 34273 ft | 459 kts | 234° |
| 2026-05-09 03:28 | 21.75295 | 57.09402 | 34670 ft | 458 kts | 234° |
| 2026-05-09 03:28 | 21.73426 | 57.06632 | 35098 ft | 456 kts | 234° |
| 2026-05-09 03:28 | 21.71581 | 57.03907 | 35493 ft | 455 kts | 234° |
| 2026-05-09 03:29 | 21.69715 | 57.01164 | 35902 ft | 454 kts | 234° |
| 2026-05-09 03:29 | 21.67851 | 56.98439 | 36276 ft | 452 kts | 233° |
| 2026-05-09 03:29 | 21.65982 | 56.95719 | 36634 ft | 451 kts | 233° |
| 2026-05-09 03:29 | 21.64116 | 56.93013 | 37011 ft | 449 kts | 233° |
| 2026-05-09 03:30 | 21.62260 | 56.90327 | 37448 ft | 446 kts | 233° |
| 2026-05-09 03:30 | 21.60417 | 56.87662 | 37887 ft | 442 kts | 233° |
| 2026-05-09 03:30 | 21.58590 | 56.85021 | 38268 ft | 439 kts | 233° |
| 2026-05-09 03:30 | 21.56775 | 56.82393 | 38581 ft | 438 kts | 233° |
| 2026-05-09 03:31 | 21.54961 | 56.79769 | 38821 ft | 437 kts | 233° |
| 2026-05-09 03:31 | 21.53147 | 56.77146 | 39082 ft | 437 kts | 233° |
| 2026-05-09 03:31 | 21.51333 | 56.74525 | 39313 ft | 437 kts | 233° |
| 2026-05-09 03:31 | 21.49522 | 56.71910 | 39540 ft | 437 kts | 233° |
| 2026-05-09 03:32 | 21.47707 | 56.69291 | 39769 ft | 437 kts | 233° |
| 2026-05-09 03:32 | 21.45886 | 56.66663 | 39851 ft | 440 kts | 233° |
| 2026-05-09 03:32 | 21.42203 | 56.61358 | 39860 ft | 443 kts | 233° |
| 2026-05-09 03:33 | 21.38541 | 56.56084 | 39860 ft | 443 kts | 233° |
| 2026-05-09 03:33 | 21.34857 | 56.50781 | 39860 ft | 443 kts | 233° |
| 2026-05-09 03:34 | 21.31177 | 56.45492 | 39858 ft | 443 kts | 233° |
| 2026-05-09 03:34 | 21.27505 | 56.40219 | 39859 ft | 443 kts | 232° |
| 2026-05-09 03:35 | 21.23814 | 56.34924 | 39859 ft | 442 kts | 232° |
| 2026-05-09 03:35 | 21.20121 | 56.29633 | 39860 ft | 442 kts | 232° |
| 2026-05-09 03:36 | 21.16426 | 56.24344 | 39860 ft | 442 kts | 232° |
| 2026-05-09 03:36 | 21.12760 | 56.19097 | 39860 ft | 443 kts | 232° |
| 2026-05-09 03:37 | 21.09068 | 56.13819 | 39865 ft | 442 kts | 232° |
| 2026-05-09 03:37 | 21.05372 | 56.08538 | 39866 ft | 443 kts | 232° |
| 2026-05-09 03:38 | 21.01680 | 56.03273 | 39870 ft | 442 kts | 232° |
| 2026-05-09 03:38 | 20.97988 | 55.98016 | 39871 ft | 442 kts | 232° |
| 2026-05-09 03:39 | 20.94297 | 55.92759 | 39869 ft | 441 kts | 232° |
| 2026-05-09 03:39 | 20.90618 | 55.87524 | 39869 ft | 440 kts | 232° |
| 2026-05-09 03:40 | 20.86948 | 55.82308 | 39870 ft | 440 kts | 232° |
| 2026-05-09 03:40 | 20.83261 | 55.77078 | 39870 ft | 440 kts | 232° |
| 2026-05-09 03:41 | 20.79576 | 55.71848 | 39869 ft | 440 kts | 232° |
| 2026-05-09 03:41 | 20.75886 | 55.66612 | 39869 ft | 440 kts | 232° |
| 2026-05-09 03:42 | 20.72219 | 55.61419 | 39868 ft | 440 kts | 232° |
| 2026-05-09 03:42 | 20.68518 | 55.56183 | 39873 ft | 440 kts | 232° |
| 2026-05-09 03:43 | 20.64822 | 55.50960 | 39879 ft | 441 kts | 232° |
| 2026-05-09 03:43 | 20.61143 | 55.45764 | 39878 ft | 440 kts | 232° |
| 2026-05-09 03:44 | 20.57446 | 55.40551 | 39879 ft | 440 kts | 232° |
| 2026-05-09 03:44 | 20.53741 | 55.35331 | 39878 ft | 441 kts | 232° |
| 2026-05-09 03:45 | 20.50036 | 55.30112 | 39879 ft | 440 kts | 232° |
| 2026-05-09 03:45 | 20.46361 | 55.24938 | 39878 ft | 440 kts | 232° |
| 2026-05-09 03:46 | 20.42654 | 55.19726 | 39888 ft | 441 kts | 231° |
| 2026-05-09 03:46 | 20.38943 | 55.14514 | 39887 ft | 440 kts | 231° |
| 2026-05-09 03:47 | 20.35244 | 55.09324 | 39889 ft | 439 kts | 231° |
| 2026-05-09 03:47 | 20.31544 | 55.04134 | 39888 ft | 440 kts | 231° |
| 2026-05-09 03:48 | 20.27838 | 54.98942 | 39888 ft | 440 kts | 231° |
| 2026-05-09 03:48 | 20.24155 | 54.93789 | 39887 ft | 439 kts | 231° |
| 2026-05-09 03:49 | 20.20450 | 54.88606 | 39887 ft | 440 kts | 231° |
| 2026-05-09 03:49 | 20.16739 | 54.83421 | 39887 ft | 439 kts | 231° |
| 2026-05-09 03:50 | 20.13032 | 54.78249 | 39888 ft | 439 kts | 231° |
| 2026-05-09 03:50 | 20.09332 | 54.73092 | 39886 ft | 439 kts | 231° |
| 2026-05-09 03:51 | 20.05623 | 54.67924 | 39888 ft | 438 kts | 231° |
| 2026-05-09 03:51 | 20.01920 | 54.62768 | 39887 ft | 439 kts | 231° |
| 2026-05-09 03:52 | 19.98235 | 54.57642 | 39888 ft | 439 kts | 231° |
| 2026-05-09 03:52 | 19.94526 | 54.52486 | 39897 ft | 440 kts | 231° |
| 2026-05-09 03:53 | 19.90800 | 54.47313 | 39897 ft | 440 kts | 231° |
| 2026-05-09 03:53 | 19.87078 | 54.42152 | 39897 ft | 440 kts | 231° |
| 2026-05-09 03:54 | 19.83349 | 54.36983 | 39897 ft | 440 kts | 231° |
| 2026-05-09 03:54 | 19.79646 | 54.31855 | 39897 ft | 440 kts | 231° |
| 2026-05-09 03:55 | 19.75914 | 54.26691 | 39897 ft | 440 kts | 231° |
| 2026-05-09 03:55 | 19.72187 | 54.21537 | 39897 ft | 440 kts | 231° |
| 2026-05-09 03:56 | 19.68451 | 54.16376 | 39897 ft | 440 kts | 231° |
| 2026-05-09 03:56 | 19.64744 | 54.11259 | 39897 ft | 440 kts | 231° |
| 2026-05-09 03:57 | 19.61012 | 54.06109 | 39897 ft | 440 kts | 231° |
| 2026-05-09 03:57 | 19.57286 | 54.00960 | 39920 ft | 440 kts | 233° |
| 2026-05-09 03:58 | 19.54329 | 53.95256 | 39924 ft | 442 kts | 245° |
| 2026-05-09 03:58 | 19.52082 | 53.89222 | 39917 ft | 443 kts | 247° |
| 2026-05-09 03:59 | 19.49944 | 53.83074 | 39913 ft | 444 kts | 248° |
| 2026-05-09 03:59 | 19.47813 | 53.76924 | 39920 ft | 444 kts | 248° |
| 2026-05-09 04:00 | 19.45664 | 53.70791 | 39924 ft | 444 kts | 247° |
| 2026-05-09 04:00 | 19.43511 | 53.64689 | 39925 ft | 444 kts | 247° |
| 2026-05-09 04:01 | 19.41342 | 53.58563 | 39924 ft | 444 kts | 247° |
| 2026-05-09 04:01 | 19.39177 | 53.52439 | 39925 ft | 444 kts | 247° |
| 2026-05-09 04:02 | 19.37007 | 53.46313 | 39926 ft | 444 kts | 247° |
| 2026-05-09 04:02 | 19.34833 | 53.40186 | 39925 ft | 444 kts | 247° |
| 2026-05-09 04:03 | 19.32658 | 53.34061 | 39932 ft | 445 kts | 247° |
| 2026-05-09 04:03 | 19.30475 | 53.27928 | 39936 ft | 445 kts | 247° |
| 2026-05-09 04:04 | 19.28306 | 53.21839 | 39934 ft | 445 kts | 247° |
| 2026-05-09 04:04 | 19.26122 | 53.15714 | 39935 ft | 444 kts | 247° |
| 2026-05-09 04:05 | 19.23937 | 53.09593 | 39934 ft | 445 kts | 247° |
| 2026-05-09 04:05 | 19.21750 | 53.03475 | 39935 ft | 445 kts | 247° |
| 2026-05-09 04:06 | 19.19557 | 52.97345 | 39934 ft | 445 kts | 247° |
| 2026-05-09 04:06 | 19.17361 | 52.91215 | 39935 ft | 445 kts | 247° |
| 2026-05-09 04:07 | 19.15176 | 52.85130 | 39934 ft | 445 kts | 247° |
| 2026-05-09 04:07 | 19.12978 | 52.79009 | 39934 ft | 445 kts | 247° |
| 2026-05-09 04:08 | 19.10774 | 52.72874 | 39933 ft | 445 kts | 246° |
| 2026-05-09 04:08 | 19.08579 | 52.66781 | 39934 ft | 445 kts | 247° |
| 2026-05-09 04:09 | 19.06372 | 52.60654 | 39934 ft | 445 kts | 246° |
| 2026-05-09 04:09 | 19.04160 | 52.54530 | 39934 ft | 446 kts | 246° |
| 2026-05-09 04:10 | 19.01962 | 52.48445 | 39934 ft | 446 kts | 247° |
| 2026-05-09 04:10 | 18.99747 | 52.42325 | 39933 ft | 446 kts | 246° |
| 2026-05-09 04:11 | 18.97532 | 52.36206 | 39934 ft | 446 kts | 246° |
| 2026-05-09 04:11 | 18.95311 | 52.30083 | 39934 ft | 446 kts | 246° |
| 2026-05-09 04:12 | 18.93087 | 52.23961 | 39935 ft | 446 kts | 246° |
| 2026-05-09 04:12 | 18.90877 | 52.17887 | 39935 ft | 446 kts | 246° |
| 2026-05-09 04:13 | 18.89009 | 52.12749 | 39940 ft | 447 kts | 246° |
| 2026-05-09 04:13 | 18.86788 | 52.06659 | 39944 ft | 447 kts | 246° |
| 2026-05-09 04:14 | 18.84265 | 52.00670 | 39944 ft | 445 kts | 242° |
| 2026-05-09 04:14 | 18.81553 | 51.94784 | 39943 ft | 445 kts | 242° |
| 2026-05-09 04:15 | 18.78856 | 51.88940 | 39943 ft | 445 kts | 242° |
| 2026-05-09 04:15 | 18.76170 | 51.83047 | 39943 ft | 445 kts | 242° |
| 2026-05-09 04:16 | 18.73496 | 51.77141 | 39941 ft | 445 kts | 242° |
| 2026-05-09 04:16 | 18.70826 | 51.71243 | 39943 ft | 445 kts | 242° |
| 2026-05-09 04:17 | 18.68160 | 51.65365 | 39943 ft | 446 kts | 242° |
| 2026-05-09 04:17 | 18.65484 | 51.59471 | 39944 ft | 446 kts | 242° |
| 2026-05-09 04:18 | 18.62806 | 51.53581 | 39943 ft | 445 kts | 242° |
| 2026-05-09 04:18 | 18.60121 | 51.47682 | 39944 ft | 446 kts | 242° |
| 2026-05-09 04:19 | 18.57433 | 51.41780 | 39949 ft | 445 kts | 242° |
| 2026-05-09 04:19 | 18.54747 | 51.35891 | 39954 ft | 446 kts | 242° |
| 2026-05-09 04:20 | 18.52048 | 51.30012 | 39952 ft | 445 kts | 242° |
| 2026-05-09 04:20 | 18.49254 | 51.24168 | 39953 ft | 445 kts | 241° |
| 2026-05-09 04:21 | 18.46457 | 51.18399 | 39962 ft | 445 kts | 241° |
| 2026-05-09 04:22 | 18.42246 | 51.09682 | 39962 ft | 445 kts | 241° |
| 2026-05-09 04:22 | 18.39442 | 51.03877 | 39962 ft | 445 kts | 241° |
| 2026-05-09 04:23 | 18.36628 | 50.98060 | 39961 ft | 445 kts | 240° |
| 2026-05-09 04:23 | 18.33821 | 50.92257 | 39963 ft | 445 kts | 240° |
| 2026-05-09 04:24 | 18.31013 | 50.86457 | 39982 ft | 445 kts | 240° |
| 2026-05-09 04:24 | 18.28221 | 50.80691 | 39978 ft | 444 kts | 240° |
| 2026-05-09 04:25 | 18.25410 | 50.74898 | 39964 ft | 444 kts | 240° |
| 2026-05-09 04:25 | 18.22599 | 50.69107 | 39981 ft | 444 kts | 240° |
| 2026-05-09 04:26 | 18.19784 | 50.63315 | 39965 ft | 444 kts | 240° |
| 2026-05-09 04:26 | 18.16965 | 50.57519 | 39967 ft | 444 kts | 240° |
| 2026-05-09 04:27 | 18.14147 | 50.51733 | 39968 ft | 444 kts | 240° |
| 2026-05-09 04:27 | 18.11343 | 50.45981 | 39978 ft | 444 kts | 240° |
| 2026-05-09 04:28 | 18.08526 | 50.40204 | 39962 ft | 444 kts | 240° |
| 2026-05-09 04:28 | 18.05702 | 50.34423 | 39964 ft | 445 kts | 240° |
| 2026-05-09 04:29 | 18.02870 | 50.28631 | 39981 ft | 445 kts | 240° |
| 2026-05-09 04:29 | 18.00038 | 50.22841 | 39964 ft | 445 kts | 240° |
| 2026-05-09 04:30 | 17.97208 | 50.17066 | 39983 ft | 445 kts | 240° |
| 2026-05-09 04:30 | 17.94393 | 50.11320 | 39983 ft | 445 kts | 240° |
| 2026-05-09 04:31 | 17.91558 | 50.05539 | 39982 ft | 445 kts | 240° |
| 2026-05-09 04:31 | 17.88718 | 49.99754 | 39981 ft | 445 kts | 240° |
| 2026-05-09 04:32 | 17.85880 | 49.93980 | 39982 ft | 445 kts | 240° |
| 2026-05-09 04:32 | 17.83040 | 49.88210 | 39980 ft | 445 kts | 240° |
| 2026-05-09 04:33 | 17.80195 | 49.82430 | 39982 ft | 445 kts | 240° |
| 2026-05-09 04:33 | 17.77353 | 49.76663 | 39982 ft | 445 kts | 240° |
| 2026-05-09 04:34 | 17.74509 | 49.70896 | 39982 ft | 445 kts | 240° |
| 2026-05-09 04:34 | 17.71679 | 49.65165 | 39980 ft | 445 kts | 240° |
| 2026-05-09 04:35 | 17.68828 | 49.59396 | 39979 ft | 445 kts | 240° |
| 2026-05-09 04:35 | 17.65976 | 49.53626 | 39996 ft | 445 kts | 240° |
| 2026-05-09 04:36 | 17.63125 | 49.47866 | 39997 ft | 446 kts | 240° |
| 2026-05-09 04:36 | 17.60264 | 49.42100 | 39997 ft | 445 kts | 240° |
| 2026-05-09 04:37 | 17.57390 | 49.36349 | 40001 ft | 445 kts | 240° |
| 2026-05-09 04:37 | 17.54515 | 49.30604 | 40001 ft | 445 kts | 240° |
| 2026-05-09 04:38 | 17.51635 | 49.24853 | 39997 ft | 446 kts | 240° |
| 2026-05-09 04:38 | 17.48753 | 49.19101 | 40002 ft | 446 kts | 240° |
| 2026-05-09 04:39 | 17.45872 | 49.13355 | 39998 ft | 445 kts | 240° |
| 2026-05-09 04:39 | 17.42992 | 49.07616 | 39992 ft | 445 kts | 240° |
| 2026-05-09 04:40 | 17.40109 | 49.01877 | 39990 ft | 445 kts | 240° |
| 2026-05-09 04:40 | 17.37239 | 48.96165 | 39990 ft | 445 kts | 240° |
| 2026-05-09 04:41 | 17.34351 | 48.90426 | 39990 ft | 446 kts | 240° |
| 2026-05-09 04:41 | 17.31459 | 48.84680 | 39993 ft | 446 kts | 240° |
| 2026-05-09 04:42 | 17.28570 | 48.78946 | 39988 ft | 445 kts | 240° |
| 2026-05-09 04:42 | 17.25679 | 48.73213 | 39986 ft | 445 kts | 240° |
| 2026-05-09 04:43 | 17.22780 | 48.67475 | 39993 ft | 445 kts | 240° |
| 2026-05-09 04:43 | 17.19904 | 48.61785 | 39987 ft | 445 kts | 240° |
| 2026-05-09 04:44 | 17.17002 | 48.56049 | 39990 ft | 445 kts | 240° |
| 2026-05-09 04:44 | 17.14103 | 48.50319 | 39992 ft | 446 kts | 240° |
| 2026-05-09 04:45 | 17.11197 | 48.44589 | 39991 ft | 446 kts | 240° |
| 2026-05-09 04:45 | 17.08289 | 48.38856 | 39993 ft | 446 kts | 240° |
| 2026-05-09 04:46 | 17.05398 | 48.33163 | 39991 ft | 446 kts | 240° |
| 2026-05-09 04:46 | 17.02487 | 48.27433 | 39992 ft | 446 kts | 240° |
| 2026-05-09 04:47 | 16.99574 | 48.21705 | 39991 ft | 446 kts | 240° |
| 2026-05-09 04:47 | 16.96665 | 48.15965 | 39986 ft | 446 kts | 240° |
| 2026-05-09 04:48 | 16.93776 | 48.10211 | 39991 ft | 447 kts | 240° |
| 2026-05-09 04:48 | 16.90904 | 48.04490 | 39989 ft | 447 kts | 240° |
| 2026-05-09 04:49 | 16.88013 | 47.98738 | 39991 ft | 447 kts | 240° |
| 2026-05-09 04:49 | 16.85123 | 47.92994 | 39991 ft | 446 kts | 240° |
| 2026-05-09 04:50 | 16.82235 | 47.87262 | 39991 ft | 445 kts | 240° |
| 2026-05-09 04:50 | 16.79349 | 47.81542 | 39988 ft | 446 kts | 240° |
| 2026-05-09 04:51 | 16.76477 | 47.75855 | 39991 ft | 446 kts | 240° |
| 2026-05-09 04:51 | 16.73584 | 47.70126 | 39987 ft | 446 kts | 240° |
| 2026-05-09 04:52 | 16.70690 | 47.64401 | 39986 ft | 446 kts | 240° |
| 2026-05-09 04:52 | 16.67794 | 47.58664 | 39989 ft | 446 kts | 240° |
| 2026-05-09 04:53 | 16.64907 | 47.52933 | 39991 ft | 446 kts | 240° |
| 2026-05-09 04:53 | 16.62037 | 47.47240 | 39986 ft | 445 kts | 240° |
| 2026-05-09 04:54 | 16.59147 | 47.41517 | 39991 ft | 445 kts | 240° |
| 2026-05-09 04:54 | 16.56261 | 47.35807 | 39986 ft | 445 kts | 240° |
| 2026-05-09 04:55 | 16.53364 | 47.30099 | 39989 ft | 445 kts | 240° |
| 2026-05-09 04:55 | 16.50940 | 47.25371 | 39987 ft | 445 kts | 240° |
| 2026-05-09 04:56 | 16.47546 | 47.18771 | 39991 ft | 444 kts | 240° |
| 2026-05-09 04:56 | 16.44629 | 47.13100 | 39986 ft | 444 kts | 240° |
| 2026-05-09 04:57 | 16.41715 | 47.07440 | 39996 ft | 443 kts | 240° |
| 2026-05-09 04:57 | 16.38804 | 47.01785 | 39999 ft | 443 kts | 240° |
| 2026-05-09 04:58 | 16.36382 | 46.97085 | 40000 ft | 442 kts | 240° |
| 2026-05-09 04:58 | 16.33467 | 46.91438 | 39996 ft | 442 kts | 240° |
| 2026-05-09 04:59 | 16.30560 | 46.85803 | 39997 ft | 441 kts | 240° |
| 2026-05-09 04:59 | 16.27639 | 46.80175 | 40008 ft | 441 kts | 240° |
| 2026-05-09 05:00 | 16.24716 | 46.74563 | 40008 ft | 440 kts | 239° |
| 2026-05-09 05:00 | 16.21812 | 46.68994 | 40008 ft | 440 kts | 240° |
| 2026-05-09 05:01 | 16.18886 | 46.63386 | 40008 ft | 439 kts | 239° |
| 2026-05-09 05:01 | 16.15972 | 46.57805 | 40009 ft | 439 kts | 239° |
| 2026-05-09 05:02 | 16.13055 | 46.52222 | 40008 ft | 439 kts | 239° |
| 2026-05-09 05:02 | 16.10158 | 46.46681 | 40008 ft | 438 kts | 239° |
| 2026-05-09 05:03 | 16.07248 | 46.41120 | 40009 ft | 438 kts | 239° |
| 2026-05-09 05:03 | 16.04333 | 46.35554 | 40032 ft | 438 kts | 239° |
| 2026-05-09 05:04 | 16.01474 | 46.29954 | 40033 ft | 439 kts | 245° |
| 2026-05-09 05:04 | 16.00582 | 46.26960 | 40037 ft | 441 kts | 257° |
| 2026-05-09 05:04 | 16.00173 | 46.23801 | 40038 ft | 442 kts | 261° |
| 2026-05-09 05:05 | 15.99651 | 46.17406 | 40036 ft | 443 kts | 262° |
| 2026-05-09 05:05 | 15.99169 | 46.11022 | 40036 ft | 443 kts | 262° |
| 2026-05-09 05:06 | 15.98685 | 46.04626 | 40040 ft | 443 kts | 262° |
| 2026-05-09 05:06 | 15.98198 | 45.98235 | 40033 ft | 443 kts | 262° |
| 2026-05-09 05:07 | 15.97709 | 45.91838 | 40026 ft | 443 kts | 262° |
| 2026-05-09 05:07 | 15.97218 | 45.85448 | 40032 ft | 443 kts | 262° |
| 2026-05-09 05:08 | 15.96728 | 45.79092 | 40034 ft | 443 kts | 262° |
| 2026-05-09 05:08 | 15.96233 | 45.72701 | 40037 ft | 443 kts | 262° |
| 2026-05-09 05:09 | 15.95736 | 45.66309 | 40032 ft | 443 kts | 262° |
| 2026-05-09 05:09 | 15.95237 | 45.59915 | 40036 ft | 443 kts | 262° |
| 2026-05-09 05:10 | 15.94739 | 45.53558 | 40040 ft | 444 kts | 262° |
| 2026-05-09 05:10 | 15.94237 | 45.47160 | 40039 ft | 444 kts | 262° |
| 2026-05-09 05:11 | 15.93732 | 45.40765 | 40047 ft | 444 kts | 262° |
| 2026-05-09 05:11 | 15.93227 | 45.34376 | 40050 ft | 444 kts | 262° |
| 2026-05-09 05:12 | 15.92719 | 45.27982 | 40052 ft | 443 kts | 262° |
| 2026-05-09 05:12 | 15.92212 | 45.21633 | 40044 ft | 443 kts | 262° |
| 2026-05-09 05:13 | 15.91701 | 45.15246 | 40050 ft | 444 kts | 263° |
| 2026-05-09 05:13 | 15.91186 | 45.08844 | 40041 ft | 444 kts | 262° |
| 2026-05-09 05:14 | 15.90671 | 45.02457 | 40048 ft | 444 kts | 262° |
| 2026-05-09 05:14 | 15.90154 | 44.96071 | 40062 ft | 444 kts | 263° |
| 2026-05-09 05:15 | 15.89634 | 44.89674 | 40076 ft | 444 kts | 263° |
| 2026-05-09 05:15 | 15.89116 | 44.83317 | 40076 ft | 444 kts | 263° |
| 2026-05-09 05:15 | 15.88689 | 44.80150 | 40078 ft | 441 kts | 252° |
| 2026-05-09 05:16 | 15.87495 | 44.77256 | 40076 ft | 435 kts | 236° |
| 2026-05-09 05:16 | 15.85537 | 44.74867 | 40075 ft | 433 kts | 222° |
| 2026-05-09 05:16 | 15.83245 | 44.72826 | 40074 ft | 434 kts | 219° |
| 2026-05-09 05:17 | 15.78609 | 44.68763 | 40076 ft | 436 kts | 220° |
| 2026-05-09 05:17 | 15.74071 | 44.64627 | 40054 ft | 436 kts | 221° |
| 2026-05-09 05:18 | 15.69545 | 44.60434 | 40061 ft | 436 kts | 221° |
| 2026-05-09 05:18 | 15.65027 | 44.56229 | 40057 ft | 436 kts | 221° |
| 2026-05-09 05:19 | 15.60516 | 44.52027 | 40057 ft | 436 kts | 221° |
| 2026-05-09 05:19 | 15.55989 | 44.47811 | 40058 ft | 437 kts | 221° |
| 2026-05-09 05:20 | 15.53280 | 44.45289 | 40068 ft | 437 kts | 221° |
| 2026-05-09 05:21 | 15.49513 | 44.42253 | 39468 ft | 443 kts | 207° |
| 2026-05-09 05:21 | 15.46588 | 44.41181 | 38666 ft | 450 kts | 192° |
| 2026-05-09 05:21 | 15.43456 | 44.40780 | 37889 ft | 455 kts | 187° |
| 2026-05-09 05:21 | 15.40291 | 44.40502 | 37146 ft | 457 kts | 186° |
| 2026-05-09 05:22 | 15.37137 | 44.40199 | 36818 ft | 450 kts | 187° |
| 2026-05-09 05:22 | 15.34072 | 44.39874 | 36818 ft | 435 kts | 188° |
| 2026-05-09 05:22 | 15.31116 | 44.39539 | 36836 ft | 420 kts | 188° |
| 2026-05-09 05:22 | 15.28258 | 44.39201 | 36843 ft | 406 kts | 188° |
| 2026-05-09 05:23 | 15.25534 | 44.38872 | 36853 ft | 392 kts | 188° |
| 2026-05-09 05:23 | 15.22864 | 44.38545 | 36828 ft | 380 kts | 188° |
| 2026-05-09 05:23 | 15.20271 | 44.38224 | 36709 ft | 371 kts | 188° |
| 2026-05-09 05:23 | 15.17721 | 44.37906 | 36407 ft | 368 kts | 189° |
| 2026-05-09 05:24 | 15.15161 | 44.37430 | 36155 ft | 381 kts | 196° |
| 2026-05-09 05:24 | 15.12609 | 44.36510 | 35891 ft | 396 kts | 205° |
| 2026-05-09 05:24 | 15.10140 | 44.35123 | 35637 ft | 412 kts | 213° |
| 2026-05-09 05:24 | 15.07796 | 44.33321 | 35370 ft | 428 kts | 220° |
| 2026-05-09 05:25 | 15.05600 | 44.31156 | 35102 ft | 442 kts | 226° |
| 2026-05-09 05:25 | 15.03626 | 44.28696 | 34840 ft | 446 kts | 233° |
| 2026-05-09 05:25 | 15.01002 | 44.22873 | 34337 ft | 451 kts | 254° |
| 2026-05-09 05:26 | 15.00511 | 44.19699 | 34084 ft | 455 kts | 264° |
| 2026-05-09 05:26 | 15.00562 | 44.16409 | 33838 ft | 459 kts | 274° |
| 2026-05-09 05:26 | 15.01160 | 44.13150 | 33585 ft | 464 kts | 283° |
| 2026-05-09 05:26 | 15.02304 | 44.10046 | 33335 ft | 460 kts | 295° |
| 2026-05-09 05:27 | 15.04143 | 44.07363 | 33090 ft | 457 kts | 311° |
| 2026-05-09 05:27 | 15.06617 | 44.05338 | 32848 ft | 453 kts | 328° |
| 2026-05-09 05:27 | 15.09528 | 44.04136 | 32601 ft | 450 kts | 345° |
| 2026-05-09 05:27 | 15.12616 | 44.03867 | 32348 ft | 445 kts | 3° |
| 2026-05-09 05:28 | 15.15633 | 44.04440 | 32128 ft | 438 kts | 15° |
| 2026-05-09 05:28 | 15.18469 | 44.05522 | 31874 ft | 431 kts | 24° |
| 2026-05-09 05:28 | 15.21108 | 44.06958 | 31624 ft | 425 kts | 30° |
| 2026-05-09 05:28 | 15.23820 | 44.08305 | 31373 ft | 443 kts | 16° |
| 2026-05-09 05:29 | 15.26912 | 44.08789 | 31111 ft | 460 kts | 358° |
| 2026-05-09 05:29 | 15.30096 | 44.08313 | 30844 ft | 475 kts | 341° |
| 2026-05-09 05:29 | 15.33127 | 44.06915 | 30578 ft | 480 kts | 327° |
| 2026-05-09 05:29 | 15.36053 | 44.05217 | 30319 ft | 482 kts | 332° |
| 2026-05-09 05:30 | 15.39196 | 44.04033 | 30074 ft | 482 kts | 345° |
| 2026-05-09 05:30 | 15.42515 | 44.03534 | 29816 ft | 482 kts | 356° |
| 2026-05-09 05:30 | 15.45871 | 44.03634 | 29559 ft | 482 kts | 5° |
| 2026-05-09 05:30 | 15.49184 | 44.04139 | 29336 ft | 481 kts | 10° |
| 2026-05-09 05:31 | 15.52453 | 44.04879 | 29081 ft | 480 kts | 13° |
| 2026-05-09 05:31 | 15.55685 | 44.05709 | 28821 ft | 477 kts | 14° |
| 2026-05-09 05:31 | 15.58880 | 44.06632 | 28575 ft | 475 kts | 15° |
| 2026-05-09 05:31 | 15.61991 | 44.07637 | 28327 ft | 463 kts | 20° |
| 2026-05-09 05:32 | 15.64866 | 44.08965 | 28090 ft | 452 kts | 28° |
| 2026-05-09 05:32 | 15.67553 | 44.10584 | 27847 ft | 442 kts | 33° |
| 2026-05-09 05:32 | 15.70088 | 44.12337 | 27611 ft | 432 kts | 35° |
| 2026-05-09 05:32 | 15.72525 | 44.14110 | 27355 ft | 423 kts | 36° |
| 2026-05-09 05:33 | 15.74920 | 44.15846 | 27119 ft | 415 kts | 35° |
| 2026-05-09 05:33 | 15.77155 | 44.17746 | 26880 ft | 425 kts | 47° |
| 2026-05-09 05:33 | 15.79268 | 44.20022 | 26606 ft | 448 kts | 40° |
| 2026-05-09 05:33 | 15.81950 | 44.21723 | 26337 ft | 454 kts | 22° |
| 2026-05-09 05:34 | 15.84993 | 44.22550 | 26083 ft | 453 kts | 7° |
| 2026-05-09 05:34 | 15.88077 | 44.23171 | 25826 ft | 451 kts | 18° |
| 2026-05-09 05:34 | 15.90861 | 44.24622 | 25576 ft | 448 kts | 36° |
| 2026-05-09 05:34 | 15.93105 | 44.26840 | 25323 ft | 442 kts | 53° |
| 2026-05-09 05:35 | 15.94571 | 44.29572 | 25092 ft | 427 kts | 71° |
| 2026-05-09 05:35 | 15.95133 | 44.32539 | 24843 ft | 413 kts | 90° |
| 2026-05-09 05:35 | 15.94759 | 44.35392 | 24610 ft | 399 kts | 110° |
| 2026-05-09 05:35 | 15.93502 | 44.37890 | 24362 ft | 385 kts | 130° |
| 2026-05-09 05:36 | 15.91538 | 44.39688 | 24125 ft | 372 kts | 151° |
| 2026-05-09 05:36 | 15.89217 | 44.40769 | 23886 ft | 362 kts | 160° |
| 2026-05-09 05:36 | 15.86862 | 44.41600 | 23639 ft | 354 kts | 163° |
| 2026-05-09 05:36 | 15.84520 | 44.42294 | 23393 ft | 346 kts | 166° |
| 2026-05-09 05:37 | 15.82196 | 44.42864 | 23145 ft | 340 kts | 169° |
| 2026-05-09 05:37 | 15.79897 | 44.43313 | 22899 ft | 333 kts | 171° |
| 2026-05-09 05:37 | 15.77624 | 44.43643 | 22654 ft | 327 kts | 174° |
| 2026-05-09 05:37 | 15.75367 | 44.43852 | 22407 ft | 322 kts | 176° |
| 2026-05-09 05:38 | 15.73166 | 44.43937 | 22164 ft | 316 kts | 180° |
| 2026-05-09 05:38 | 15.70985 | 44.43897 | 21918 ft | 311 kts | 182° |
| 2026-05-09 05:38 | 15.68843 | 44.43737 | 21670 ft | 306 kts | 186° |
| 2026-05-09 05:38 | 15.66748 | 44.43449 | 21427 ft | 301 kts | 189° |
| 2026-05-09 05:39 | 15.60263 | 44.42986 | 19850 ft | 317 kts | 179° |
| 2026-05-09 05:39 | 15.47209 | 44.43534 | 16148 ft | 368 kts | 174° |
| 2026-05-09 05:39 | 15.44609 | 44.43270 | 15527 ft | 377 kts | 181° |
| 2026-05-09 05:39 | 15.42014 | 44.43033 | 14701 ft | 374 kts | 178° |
| 2026-05-09 05:40 | 15.39407 | 44.42743 | 13694 ft | 378 kts | 181° |
| 2026-05-09 05:40 | 15.36797 | 44.42337 | 12703 ft | 381 kts | 183° |
| 2026-05-09 05:40 | 15.34169 | 44.41860 | 11690 ft | 385 kts | 185° |
| 2026-05-09 05:40 | 15.31545 | 44.41333 | 10928 ft | 381 kts | 186° |
| 2026-05-09 05:41 | 15.28983 | 44.40808 | 10509 ft | 367 kts | 185° |
| 2026-05-09 05:41 | 15.26546 | 44.40333 | 10334 ft | 346 kts | 182° |
| 2026-05-09 05:41 | 15.24252 | 44.39931 | 10305 ft | 321 kts | 179° |
| 2026-05-09 05:41 | 15.22159 | 44.39588 | 10295 ft | 294 kts | 176° |
| 2026-05-09 05:42 | 15.20257 | 44.39169 | 10294 ft | 263 kts | 182° |
| 2026-05-09 05:42 | 15.18650 | 44.38555 | 10295 ft | 234 kts | 175° |
| 2026-05-09 05:42 | 15.17219 | 44.38200 | 10588 ft | 187 kts | 141° |
| 2026-05-09 05:42 | 15.16416 | 44.38552 | 8451 ft | 52 kts | 116° |
| 2026-05-09 05:43 | 15.16193 | 44.38714 | 8147 ft | 40 kts | 144° |